sensor_id;sensor_type;location;lat;lon;timestamp;P1;durP1;ratioP1;P2;durP2;ratioP2
63034;SDS011;59750;53.356;-1.458;2022-11-02T00:01:38;4.43;;;3.35;;
63034;SDS011;59750;53.356;-1.458;2022-11-02T00:04:05;5.50;;;3.53;;
63034;SDS011;59750;53.356;-1.458;2022-11-02T00:06:32;5.75;;;3.55;;
63034;SDS011;59750;53.356;-1.458;2022-11-02T00:08:57;6.43;;;4.22;;
63034;SDS011;59750;53.356;-1.458;2022-11-02T00:11:23;5.03;;;3.33;;
63034;SDS011;59750;53.356;-1.458;2022-11-02T00:13:49;4.68;;;2.92;;
63034;SDS011;59750;53.356;-1.458;2022-11-02T00:16:15;4.35;;;2.72;;
63034;SDS011;59750;53.356;-1.458;2022-11-02T00:18:43;3.78;;;2.80;;
63034;SDS011;59750;53.356;-1.458;2022-11-02T00:21:12;3.22;;;2.53;;
63034;SDS011;59750;53.356;-1.458;2022-11-02T00:23:41;3.47;;;2.25;;
63034;SDS011;59750;53.356;-1.458;2022-11-02T00:26:07;3.95;;;2.40;;
63034;SDS011;59750;53.356;-1.458;2022-11-02T00:28:34;3.97;;;1.88;;
63034;SDS011;59750;53.356;-1.458;2022-11-02T00:31:00;3.47;;;1.90;;
63034;SDS011;59750;53.356;-1.458;2022-11-02T00:33:26;1.95;;;1.50;;
63034;SDS011;59750;53.356;-1.458;2022-11-02T00:35:52;3.05;;;1.40;;
63034;SDS011;59750;53.356;-1.458;2022-11-02T00:38:20;2.10;;;1.30;;
63034;SDS011;59750;53.356;-1.458;2022-11-02T00:40:46;1.70;;;1.23;;
63034;SDS011;59750;53.356;-1.458;2022-11-02T00:43:12;5.75;;;2.28;;
63034;SDS011;59750;53.356;-1.458;2022-11-02T00:45:38;3.97;;;1.23;;
63034;SDS011;59750;53.356;-1.458;2022-11-02T00:48:04;1.13;;;0.88;;
63034;SDS011;59750;53.356;-1.458;2022-11-02T00:50:30;5.00;;;1.20;;
63034;SDS011;59750;53.356;-1.458;2022-11-02T00:52:56;1.77;;;1.00;;
63034;SDS011;59750;53.356;-1.458;2022-11-02T00:55:22;1.48;;;0.85;;
63034;SDS011;59750;53.356;-1.458;2022-11-02T00:57:48;2.15;;;1.00;;
63034;SDS011;59750;53.356;-1.458;2022-11-02T01:00:14;2.25;;;0.98;;
63034;SDS011;59750;53.356;-1.458;2022-11-02T01:02:41;3.80;;;1.33;;
63034;SDS011;59750;53.356;-1.458;2022-11-02T01:05:08;3.17;;;1.65;;
63034;SDS011;59750;53.356;-1.458;2022-11-02T01:07:35;4.65;;;2.65;;
63034;SDS011;59750;53.356;-1.458;2022-11-02T01:10:04;4.35;;;2.38;;
63034;SDS011;59750;53.356;-1.458;2022-11-02T01:12:32;3.90;;;2.58;;
63034;SDS011;59750;53.356;-1.458;2022-11-02T01:14:57;6.35;;;2.95;;
63034;SDS011;59750;53.356;-1.458;2022-11-02T01:17:24;5.40;;;2.50;;
63034;SDS011;59750;53.356;-1.458;2022-11-02T01:19:49;3.85;;;2.35;;
63034;SDS011;59750;53.356;-1.458;2022-11-02T01:22:16;5.93;;;2.55;;
63034;SDS011;59750;53.356;-1.458;2022-11-02T01:24:42;3.05;;;2.55;;
63034;SDS011;59750;53.356;-1.458;2022-11-02T01:27:07;3.55;;;2.67;;
63034;SDS011;59750;53.356;-1.458;2022-11-02T01:29:33;3.70;;;2.30;;
63034;SDS011;59750;53.356;-1.458;2022-11-02T01:31:59;3.08;;;2.55;;
63034;SDS011;59750;53.356;-1.458;2022-11-02T01:34:25;3.28;;;2.50;;
63034;SDS011;59750;53.356;-1.458;2022-11-02T01:36:50;2.85;;;2.42;;
63034;SDS011;59750;53.356;-1.458;2022-11-02T01:39:16;3.00;;;2.47;;
63034;SDS011;59750;53.356;-1.458;2022-11-02T12:23:13;9.13;;;2.38;;
63034;SDS011;59750;53.356;-1.458;2022-11-02T12:32:01;10.20;;;1.50;;
63034;SDS011;59750;53.356;-1.458;2022-11-02T12:34:54;11.20;;;2.08;;
63034;SDS011;59750;53.356;-1.458;2022-11-02T12:40:26;6.43;;;1.60;;
63034;SDS011;59750;53.356;-1.458;2022-11-02T12:43:19;13.00;;;1.80;;
63034;SDS011;59750;53.356;-1.458;2022-11-02T12:51:39;9.90;;;1.42;;
63034;SDS011;59750;53.356;-1.458;2022-11-02T12:54:19;12.35;;;1.55;;
63034;SDS011;59750;53.356;-1.458;2022-11-02T12:56:51;11.65;;;1.77;;
63034;SDS011;59750;53.356;-1.458;2022-11-02T12:59:23;9.73;;;2.05;;
63034;SDS011;59750;53.356;-1.458;2022-11-02T13:02:02;11.07;;;2.05;;
63034;SDS011;59750;53.356;-1.458;2022-11-02T13:04:41;9.00;;;1.92;;
63034;SDS011;59750;53.356;-1.458;2022-11-02T13:07:33;7.95;;;1.95;;
63034;SDS011;59750;53.356;-1.458;2022-11-02T13:12:57;10.90;;;2.15;;
63034;SDS011;59750;53.356;-1.458;2022-11-02T13:15:26;8.02;;;2.75;;
63034;SDS011;59750;53.356;-1.458;2022-11-02T13:17:56;14.90;;;3.40;;
63034;SDS011;59750;53.356;-1.458;2022-11-02T13:20:27;9.43;;;2.95;;
63034;SDS011;59750;53.356;-1.458;2022-11-02T13:23:02;18.17;;;3.80;;
63034;SDS011;59750;53.356;-1.458;2022-11-02T13:25:33;10.63;;;2.95;;
63034;SDS011;59750;53.356;-1.458;2022-11-02T13:28:10;13.18;;;2.53;;
63034;SDS011;59750;53.356;-1.458;2022-11-02T13:30:41;8.10;;;2.25;;
63034;SDS011;59750;53.356;-1.458;2022-11-02T13:36:00;7.50;;;2.17;;
63034;SDS011;59750;53.356;-1.458;2022-11-02T13:41:01;7.85;;;1.90;;
63034;SDS011;59750;53.356;-1.458;2022-11-02T13:49:39;12.48;;;3.58;;
63034;SDS011;59750;53.356;-1.458;2022-11-02T13:52:11;17.45;;;2.47;;
63034;SDS011;59750;53.356;-1.458;2022-11-02T13:54:41;12.13;;;2.67;;
63034;SDS011;59750;53.356;-1.458;2022-11-02T13:59:56;7.55;;;1.77;;
63034;SDS011;59750;53.356;-1.458;2022-11-02T14:02:23;11.50;;;3.13;;
63034;SDS011;59750;53.356;-1.458;2022-11-02T14:04:53;8.52;;;2.20;;
63034;SDS011;59750;53.356;-1.458;2022-11-02T14:07:20;8.80;;;2.65;;
63034;SDS011;59750;53.356;-1.458;2022-11-02T14:09:48;11.75;;;2.58;;
63034;SDS011;59750;53.356;-1.458;2022-11-02T14:14:43;9.10;;;2.47;;
63034;SDS011;59750;53.356;-1.458;2022-11-02T14:17:10;9.65;;;1.67;;
63034;SDS011;59750;53.356;-1.458;2022-11-02T14:22:12;12.98;;;2.22;;
63034;SDS011;59750;53.356;-1.458;2022-11-02T14:44:06;12.27;;;2.83;;
63034;SDS011;59750;53.356;-1.458;2022-11-02T14:49:33;8.65;;;2.30;;
63034;SDS011;59750;53.356;-1.458;2022-11-02T14:52:14;7.57;;;2.17;;
63034;SDS011;59750;53.356;-1.458;2022-11-02T14:54:53;13.65;;;2.65;;
63034;SDS011;59750;53.356;-1.458;2022-11-02T14:57:40;11.20;;;2.15;;
63034;SDS011;59750;53.356;-1.458;2022-11-02T15:00:17;9.20;;;2.50;;
63034;SDS011;59750;53.356;-1.458;2022-11-02T15:02:46;7.00;;;1.48;;
63034;SDS011;59750;53.356;-1.458;2022-11-02T15:05:21;7.43;;;2.50;;
63034;SDS011;59750;53.356;-1.458;2022-11-02T15:07:50;10.23;;;2.53;;
63034;SDS011;59750;53.356;-1.458;2022-11-02T15:26:19;13.52;;;2.67;;
63034;SDS011;59750;53.356;-1.458;2022-11-02T15:29:14;13.50;;;2.75;;
63034;SDS011;59750;53.356;-1.458;2022-11-02T15:31:56;13.57;;;3.65;;
63034;SDS011;59750;53.356;-1.458;2022-11-02T15:37:19;11.50;;;2.60;;
63034;SDS011;59750;53.356;-1.458;2022-11-02T15:39:49;12.27;;;3.00;;
63034;SDS011;59750;53.356;-1.458;2022-11-02T16:03:58;10.13;;;2.28;;
63034;SDS011;59750;53.356;-1.458;2022-11-02T16:06:29;11.82;;;2.63;;
63034;SDS011;59750;53.356;-1.458;2022-11-02T16:09:02;8.15;;;2.72;;
63034;SDS011;59750;53.356;-1.458;2022-11-02T16:14:42;18.90;;;4.00;;
63034;SDS011;59750;53.356;-1.458;2022-11-02T16:17:22;9.77;;;2.45;;
63034;SDS011;59750;53.356;-1.458;2022-11-02T16:20:05;17.27;;;3.25;;
63034;SDS011;59750;53.356;-1.458;2022-11-02T16:22:37;8.75;;;2.00;;
63034;SDS011;59750;53.356;-1.458;2022-11-02T16:25:10;6.65;;;2.28;;
63034;SDS011;59750;53.356;-1.458;2022-11-02T16:27:41;15.85;;;2.55;;
63034;SDS011;59750;53.356;-1.458;2022-11-02T16:30:15;13.27;;;2.72;;
63034;SDS011;59750;53.356;-1.458;2022-11-02T16:32:45;8.27;;;2.92;;
63034;SDS011;59750;53.356;-1.458;2022-11-02T16:35:15;8.23;;;2.60;;
63034;SDS011;59750;53.356;-1.458;2022-11-02T16:37:45;8.60;;;1.70;;
63034;SDS011;59750;53.356;-1.458;2022-11-02T16:40:16;10.57;;;2.00;;
63034;SDS011;59750;53.356;-1.458;2022-11-02T16:42:44;7.47;;;1.55;;
63034;SDS011;59750;53.356;-1.458;2022-11-02T16:48:13;11.10;;;2.97;;
63034;SDS011;59750;53.356;-1.458;2022-11-02T16:53:39;7.43;;;1.95;;
63034;SDS011;59750;53.356;-1.458;2022-11-02T16:56:25;5.60;;;2.47;;
63034;SDS011;59750;53.356;-1.458;2022-11-02T16:58:59;10.50;;;1.80;;
63034;SDS011;59750;53.356;-1.458;2022-11-02T17:01:28;8.60;;;2.28;;
63034;SDS011;59750;53.356;-1.458;2022-11-02T17:04:14;9.75;;;2.65;;
63034;SDS011;59750;53.356;-1.458;2022-11-02T17:06:42;7.90;;;1.70;;
63034;SDS011;59750;53.356;-1.458;2022-11-02T17:09:15;10.35;;;2.08;;
63034;SDS011;59750;53.356;-1.458;2022-11-02T17:11:47;7.05;;;1.88;;
63034;SDS011;59750;53.356;-1.458;2022-11-02T17:14:14;10.32;;;2.30;;
63034;SDS011;59750;53.356;-1.458;2022-11-02T17:22:35;8.02;;;2.35;;
63034;SDS011;59750;53.356;-1.458;2022-11-02T17:25:09;14.35;;;3.03;;
63034;SDS011;59750;53.356;-1.458;2022-11-02T17:27:39;7.78;;;2.05;;
63034;SDS011;59750;53.356;-1.458;2022-11-02T17:30:10;12.00;;;2.63;;
63034;SDS011;59750;53.356;-1.458;2022-11-02T17:32:55;8.43;;;2.03;;
63034;SDS011;59750;53.356;-1.458;2022-11-02T17:35:24;6.78;;;2.58;;
63034;SDS011;59750;53.356;-1.458;2022-11-02T17:37:51;5.22;;;1.70;;
63034;SDS011;59750;53.356;-1.458;2022-11-02T17:40:18;5.70;;;1.73;;
63034;SDS011;59750;53.356;-1.458;2022-11-02T17:42:45;6.90;;;1.42;;
63034;SDS011;59750;53.356;-1.458;2022-11-02T17:45:30;6.38;;;1.40;;
63034;SDS011;59750;53.356;-1.458;2022-11-02T17:47:59;7.47;;;2.08;;
63034;SDS011;59750;53.356;-1.458;2022-11-02T17:50:27;5.47;;;2.45;;
63034;SDS011;59750;53.356;-1.458;2022-11-02T17:52:56;5.95;;;2.08;;
63034;SDS011;59750;53.356;-1.458;2022-11-02T17:55:24;7.53;;;2.03;;
63034;SDS011;59750;53.356;-1.458;2022-11-02T17:57:56;7.15;;;2.08;;
63034;SDS011;59750;53.356;-1.458;2022-11-02T18:00:23;7.68;;;1.85;;
63034;SDS011;59750;53.356;-1.458;2022-11-02T18:02:54;4.57;;;1.77;;
63034;SDS011;59750;53.356;-1.458;2022-11-02T18:07:52;7.20;;;3.67;;
63034;SDS011;59750;53.356;-1.458;2022-11-02T18:10:19;5.38;;;1.60;;
63034;SDS011;59750;53.356;-1.458;2022-11-02T18:12:47;3.17;;;1.60;;
63034;SDS011;59750;53.356;-1.458;2022-11-02T18:15:17;2.53;;;1.17;;
63034;SDS011;59750;53.356;-1.458;2022-11-02T18:17:46;4.43;;;2.00;;
63034;SDS011;59750;53.356;-1.458;2022-11-02T18:20:13;5.63;;;1.20;;
63034;SDS011;59750;53.356;-1.458;2022-11-02T18:22:40;6.65;;;1.30;;
63034;SDS011;59750;53.356;-1.458;2022-11-02T18:25:09;3.15;;;1.17;;
63034;SDS011;59750;53.356;-1.458;2022-11-02T18:27:38;2.25;;;1.20;;
63034;SDS011;59750;53.356;-1.458;2022-11-02T18:30:06;2.17;;;0.98;;
63034;SDS011;59750;53.356;-1.458;2022-11-02T18:32:36;3.42;;;1.30;;
63034;SDS011;59750;53.356;-1.458;2022-11-02T18:35:04;4.15;;;1.58;;
63034;SDS011;59750;53.356;-1.458;2022-11-02T18:37:32;6.65;;;1.25;;
63034;SDS011;59750;53.356;-1.458;2022-11-02T18:40:01;5.10;;;1.25;;
63034;SDS011;59750;53.356;-1.458;2022-11-02T18:42:28;3.15;;;1.10;;
63034;SDS011;59750;53.356;-1.458;2022-11-02T18:44:54;3.55;;;1.75;;
63034;SDS011;59750;53.356;-1.458;2022-11-02T18:47:23;4.32;;;1.70;;
63034;SDS011;59750;53.356;-1.458;2022-11-02T18:49:49;7.57;;;1.58;;
63034;SDS011;59750;53.356;-1.458;2022-11-02T18:52:16;5.38;;;1.80;;
63034;SDS011;59750;53.356;-1.458;2022-11-02T18:54:43;3.55;;;1.55;;
